createdAt,value
2023-03-29T00:00:01.842Z,3.00
2023-03-29T00:02:39.091Z,3.10
2023-03-29T00:05:06.860Z,2.83
2023-03-29T00:07:33.899Z,2.90
2023-03-29T00:10:02.765Z,2.58
2023-03-29T00:12:29.732Z,2.75
2023-03-29T00:14:57.445Z,2.67
2023-03-29T00:17:24.378Z,2.92
2023-03-29T00:19:51.499Z,2.92
2023-03-29T00:22:18.447Z,2.80
2023-03-29T00:24:47.901Z,3.25
2023-03-29T00:27:17.991Z,2.35
2023-03-29T00:30:10.375Z,2.97
2023-03-29T00:32:38.140Z,2.35
2023-03-29T00:35:06.567Z,2.78
2023-03-29T00:37:34.066Z,2.50
2023-03-29T00:40:01.225Z,2.90
2023-03-29T00:42:28.400Z,3.05
2023-03-29T00:45:11.895Z,2.75
2023-03-29T00:47:42.859Z,3.00
2023-03-29T00:50:22.601Z,2.47
2023-03-29T00:52:56.753Z,3.13
2023-03-29T00:55:27.857Z,2.45
2023-03-29T00:57:58.052Z,3.08
2023-03-29T01:00:33.621Z,2.88
2023-03-29T01:03:09.067Z,3.35
2023-03-29T01:05:40.696Z,2.80
2023-03-29T01:08:25.821Z,2.88
2023-03-29T01:10:53.100Z,2.47
2023-03-29T01:13:29.123Z,2.95
2023-03-29T01:15:58.480Z,2.58
2023-03-29T01:18:25.581Z,2.85
2023-03-29T01:21:15.498Z,2.63
2023-03-29T01:24:07.336Z,2.70
2023-03-29T01:26:44.096Z,2.97
2023-03-29T01:29:32.884Z,2.92
2023-03-29T01:32:09.081Z,2.33
2023-03-29T01:34:44.505Z,2.58
2023-03-29T01:37:15.801Z,2.47
2023-03-29T01:39:42.848Z,3.33
2023-03-29T01:42:15.808Z,2.22
2023-03-29T01:45:08.023Z,2.80
2023-03-29T01:47:47.528Z,2.92
2023-03-29T01:50:14.604Z,3.47
2023-03-29T01:52:49.806Z,3.38
2023-03-29T01:55:22.588Z,3.28
2023-03-29T01:57:52.733Z,2.53
2023-03-29T02:00:24.974Z,3.00
2023-03-29T02:02:55.211Z,3.88
2023-03-29T02:05:24.571Z,2.78
2023-03-29T02:07:53.024Z,4.40
2023-03-29T02:10:21.548Z,3.15
2023-03-29T02:12:48.625Z,2.95
2023-03-29T02:15:21.927Z,3.55
2023-03-29T02:17:51.066Z,2.75
2023-03-29T02:20:26.775Z,3.65
2023-03-29T02:23:05.384Z,3.00
2023-03-29T02:25:32.801Z,3.40
2023-03-29T02:28:00.984Z,3.13
2023-03-29T02:30:55.176Z,2.65
2023-03-29T02:33:59.231Z,3.42
2023-03-29T02:36:43.284Z,3.30
2023-03-29T02:39:15.842Z,3.15
2023-03-29T02:41:47.234Z,3.22
2023-03-29T02:44:21.734Z,2.97
2023-03-29T02:46:56.942Z,3.33
2023-03-29T02:49:24.522Z,3.28
2023-03-29T02:51:54.243Z,3.30
2023-03-29T02:54:26.048Z,3.83
2023-03-29T02:56:59.551Z,3.45
2023-03-29T02:59:29.951Z,2.80
2023-03-29T03:01:57.104Z,3.22
2023-03-29T03:04:26.051Z,3.53
2023-03-29T03:06:53.570Z,3.40
2023-03-29T03:09:24.278Z,3.17
2023-03-29T03:11:52.864Z,3.92
2023-03-29T03:14:23.009Z,3.80
2023-03-29T03:16:50.694Z,3.10
2023-03-29T03:19:18.284Z,3.50
2023-03-29T03:21:47.124Z,3.63
2023-03-29T03:24:15.704Z,4.38
2023-03-29T03:26:42.762Z,4.28
2023-03-29T03:29:09.849Z,3.88
2023-03-29T03:32:04.405Z,4.30
2023-03-29T03:34:54.376Z,3.70
2023-03-29T03:37:26.091Z,4.40
2023-03-29T03:39:53.707Z,3.60
2023-03-29T03:42:20.939Z,4.72
2023-03-29T03:44:47.950Z,4.32
2023-03-29T03:47:33.285Z,4.22
2023-03-29T03:50:13.897Z,3.55
2023-03-29T03:52:41.087Z,4.13
2023-03-29T03:55:09.465Z,3.50
2023-03-29T03:58:02.014Z,4.90
2023-03-29T04:00:29.782Z,5.47
2023-03-29T04:03:14.196Z,6.40
2023-03-29T04:05:43.512Z,4.68
2023-03-29T04:08:12.653Z,5.93
2023-03-29T04:11:07.546Z,4.93
2023-03-29T04:13:37.449Z,4.22
2023-03-29T04:16:25.332Z,4.38
2023-03-29T04:18:53.961Z,4.05
2023-03-29T04:21:22.812Z,3.90
2023-03-29T04:23:49.898Z,4.57
2023-03-29T04:26:18.162Z,4.55
2023-03-29T04:28:51.387Z,5.00
2023-03-29T04:31:23.429Z,4.70
2023-03-29T04:34:01.865Z,4.32
2023-03-29T04:36:29.038Z,4.32
2023-03-29T04:38:56.093Z,4.63
2023-03-29T04:41:27.554Z,3.70
2023-03-29T04:46:40.348Z,5.68
2023-03-29T04:49:32.745Z,4.40
2023-03-29T04:52:01.048Z,4.13
2023-03-29T04:54:30.955Z,3.92
2023-03-29T04:57:36.220Z,3.72
2023-03-29T05:00:17.749Z,3.92
2023-03-29T05:03:07.862Z,4.35
2023-03-29T05:05:39.195Z,4.43
2023-03-29T05:08:07.299Z,3.75
2023-03-29T05:10:44.653Z,5.35
2023-03-29T05:13:12.853Z,4.05
2023-03-29T05:15:42.118Z,4.38
2023-03-29T05:18:09.793Z,5.20
2023-03-29T05:20:37.873Z,4.20
2023-03-29T05:23:05.081Z,4.32
2023-03-29T05:25:58.198Z,3.97
2023-03-29T05:28:25.259Z,4.63
2023-03-29T05:31:10.441Z,4.07
2023-03-29T05:33:39.894Z,6.75
2023-03-29T05:36:11.285Z,4.60
2023-03-29T05:38:49.999Z,3.70
2023-03-29T05:41:18.824Z,4.57
2023-03-29T05:44:04.275Z,4.03
2023-03-29T05:46:31.974Z,4.53
2023-03-29T05:49:02.750Z,4.25
2023-03-29T05:51:57.045Z,4.03
2023-03-29T05:54:25.919Z,4.03
2023-03-29T05:57:11.411Z,4.57
2023-03-29T05:59:39.830Z,3.95
2023-03-29T06:02:07.322Z,4.25
2023-03-29T06:04:40.039Z,4.20
2023-03-29T06:07:27.282Z,4.38
2023-03-29T06:10:12.867Z,4.07
2023-03-29T06:12:43.931Z,4.05
2023-03-29T06:15:12.851Z,3.88
2023-03-29T06:18:12.606Z,3.30
2023-03-29T06:20:39.744Z,3.80
2023-03-29T06:23:12.309Z,4.22
2023-03-29T06:25:39.673Z,4.60
2023-03-29T06:28:07.556Z,4.20
2023-03-29T06:30:35.222Z,3.28
2023-03-29T06:33:03.005Z,4.07
2023-03-29T06:35:56.770Z,3.42
2023-03-29T06:38:28.755Z,4.88
2023-03-29T06:41:06.399Z,4.00
2023-03-29T06:44:09.099Z,3.72
2023-03-29T06:47:01.903Z,3.60
2023-03-29T06:49:30.423Z,4.03
2023-03-29T06:52:04.687Z,4.07
2023-03-29T06:54:32.104Z,5.45
2023-03-29T06:57:03.539Z,4.65
2023-03-29T06:59:32.358Z,4.78
2023-03-29T07:02:12.730Z,4.97
2023-03-29T07:04:47.718Z,3.88
2023-03-29T07:07:55.313Z,3.92
2023-03-29T07:10:47.611Z,4.60
2023-03-29T07:13:27.761Z,4.05
2023-03-29T07:15:58.641Z,4.00
2023-03-29T07:18:51.614Z,5.85
2023-03-29T07:21:38.076Z,4.00
2023-03-29T07:24:06.950Z,3.53
2023-03-29T07:26:36.068Z,3.15
2023-03-29T07:29:03.318Z,5.75
2023-03-29T07:31:30.875Z,3.92
2023-03-29T07:34:18.700Z,3.38
2023-03-29T07:36:45.882Z,4.85
2023-03-29T07:39:13.769Z,3.08
2023-03-29T07:41:44.317Z,3.38
2023-03-29T07:44:13.995Z,3.45
2023-03-29T07:46:43.343Z,3.53
2023-03-29T07:49:10.753Z,3.05
2023-03-29T07:51:38.222Z,3.22
2023-03-29T07:54:10.912Z,4.47
2023-03-29T07:56:38.045Z,4.25
2023-03-29T07:59:25.247Z,3.42
2023-03-29T08:02:02.726Z,3.15
2023-03-29T08:04:34.898Z,3.17
2023-03-29T08:07:20.092Z,3.28
2023-03-29T08:09:56.161Z,3.45
2023-03-29T08:12:33.760Z,3.42
2023-03-29T08:15:02.060Z,2.90
2023-03-29T08:17:34.974Z,2.92
2023-03-29T08:20:10.919Z,3.00
2023-03-29T08:22:40.713Z,4.35
2023-03-29T08:25:23.403Z,3.22
2023-03-29T08:27:53.718Z,3.83
2023-03-29T08:30:53.732Z,5.72
2023-03-29T08:33:22.297Z,5.40
2023-03-29T08:35:59.261Z,3.40
2023-03-29T08:38:30.228Z,4.05
2023-03-29T08:40:57.571Z,3.65
2023-03-29T08:43:36.795Z,3.90
2023-03-29T08:46:19.025Z,3.53
2023-03-29T08:48:54.529Z,4.03
2023-03-29T08:51:31.997Z,3.10
2023-03-29T08:54:04.407Z,3.97
2023-03-29T08:56:51.478Z,3.75
2023-03-29T08:59:33.333Z,3.80
2023-03-29T09:02:12.824Z,2.92
2023-03-29T09:04:40.642Z,3.08
2023-03-29T09:07:37.510Z,2.33
2023-03-29T09:10:05.295Z,2.10
2023-03-29T09:13:08.113Z,2.45
2023-03-29T09:15:48.962Z,2.60
2023-03-29T09:19:07.048Z,3.42
2023-03-29T09:21:40.805Z,2.30
2023-03-29T09:24:23.368Z,2.53
2023-03-29T09:27:00.920Z,2.63
2023-03-29T09:29:50.677Z,2.38
2023-03-29T09:32:26.762Z,2.65
2023-03-29T09:35:29.894Z,3.10
2023-03-29T09:37:58.285Z,3.75
2023-03-29T09:40:53.907Z,2.50
2023-03-29T09:43:32.362Z,2.58
2023-03-29T09:46:04.379Z,2.80
2023-03-29T09:48:37.938Z,3.17
2023-03-29T09:51:07.997Z,3.45
2023-03-29T09:53:37.462Z,3.03
2023-03-29T09:56:19.134Z,3.50
2023-03-29T09:58:51.895Z,2.90
2023-03-29T10:01:19.940Z,2.70
2023-03-29T10:03:52.527Z,3.08
2023-03-29T10:06:23.985Z,3.30
2023-03-29T10:08:59.072Z,2.72
2023-03-29T10:11:37.160Z,3.10
2023-03-29T10:14:25.671Z,3.53
2023-03-29T10:16:56.976Z,2.97
2023-03-29T10:19:31.065Z,3.15
2023-03-29T10:22:00.889Z,2.92
2023-03-29T10:24:28.331Z,2.95
2023-03-29T10:27:00.225Z,2.75
2023-03-29T10:29:28.226Z,2.55
2023-03-29T10:31:55.344Z,2.63
2023-03-29T10:34:26.262Z,2.75
2023-03-29T10:37:02.645Z,3.63
2023-03-29T10:39:34.102Z,4.25
2023-03-29T10:42:04.590Z,2.63
2023-03-29T10:44:35.048Z,2.78
2023-03-29T10:47:17.140Z,3.53
2023-03-29T10:49:47.730Z,3.47
2023-03-29T10:52:16.711Z,3.30
2023-03-29T10:54:44.818Z,3.55
2023-03-29T10:57:16.887Z,3.90
2023-03-29T10:59:56.104Z,2.72
2023-03-29T11:02:49.163Z,3.20
2023-03-29T11:05:24.625Z,2.63
2023-03-29T11:08:13.361Z,2.67
2023-03-29T11:10:58.833Z,2.95
2023-03-29T11:13:43.995Z,2.47
2023-03-29T11:16:38.137Z,2.72
2023-03-29T11:19:18.055Z,2.05
2023-03-29T11:22:17.028Z,2.85
2023-03-29T11:25:12.868Z,2.45
2023-03-29T11:27:59.308Z,3.40
2023-03-29T11:30:39.982Z,2.22
2023-03-29T11:33:30.065Z,2.50
2023-03-29T11:36:17.799Z,3.03
2023-03-29T11:39:12.220Z,3.17
2023-03-29T11:41:43.330Z,2.38
2023-03-29T11:44:31.791Z,2.75
2023-03-29T11:47:31.931Z,2.60
2023-03-29T11:50:19.771Z,2.90
2023-03-29T11:53:05.421Z,2.92
2023-03-29T11:55:36.673Z,3.22
2023-03-29T11:58:16.684Z,2.80
2023-03-29T12:00:52.903Z,2.35
2023-03-29T12:03:32.883Z,2.95
2023-03-29T12:06:20.064Z,2.97
2023-03-29T12:08:54.879Z,2.80
2023-03-29T12:11:37.451Z,2.83
2023-03-29T12:14:14.662Z,2.90
2023-03-29T12:16:53.551Z,2.25
2023-03-29T12:19:39.763Z,3.38
2023-03-29T12:22:09.324Z,2.88
2023-03-29T12:24:43.745Z,3.20
2023-03-29T12:27:26.662Z,3.28
2023-03-29T12:30:27.638Z,2.55
2023-03-29T12:33:24.239Z,2.90
2023-03-29T12:36:21.635Z,2.50
2023-03-29T12:39:16.303Z,2.25
2023-03-29T12:42:18.075Z,2.28
2023-03-29T12:45:03.868Z,2.83
2023-03-29T12:47:44.815Z,3.10
2023-03-29T12:50:25.689Z,3.03
2023-03-29T12:52:53.168Z,2.70
2023-03-29T12:55:32.966Z,1.92
2023-03-29T12:58:05.610Z,2.58
2023-03-29T13:01:11.619Z,2.42
2023-03-29T13:03:48.673Z,3.10
2023-03-29T13:06:45.584Z,2.85
2023-03-29T13:09:30.870Z,2.97
2023-03-29T13:12:08.194Z,3.08
2023-03-29T13:14:38.130Z,2.80
2023-03-29T13:17:18.124Z,2.85
2023-03-29T13:19:52.152Z,2.10
2023-03-29T13:22:37.477Z,4.78
2023-03-29T13:25:26.372Z,2.15
2023-03-29T13:28:06.221Z,2.30
2023-03-29T13:30:59.673Z,2.13
2023-03-29T13:33:44.996Z,2.65
2023-03-29T13:36:18.075Z,3.08
2023-03-29T13:38:54.311Z,3.08
2023-03-29T13:41:39.172Z,2.83
2023-03-29T13:47:06.095Z,3.30
2023-03-29T13:49:35.717Z,2.17
2023-03-29T13:52:13.674Z,2.85
2023-03-29T13:54:52.643Z,2.42
2023-03-29T13:57:25.298Z,2.70
2023-03-29T14:00:31.653Z,2.75
2023-03-29T14:03:02.241Z,2.28
2023-03-29T14:05:41.817Z,2.60
2023-03-29T14:08:44.555Z,2.33
2023-03-29T14:11:26.699Z,2.70
2023-03-29T14:13:58.864Z,3.10
2023-03-29T14:16:32.785Z,3.25
2023-03-29T14:19:03.000Z,2.10
2023-03-29T14:21:30.628Z,2.97
2023-03-29T14:24:02.358Z,2.92
2023-03-29T14:26:34.638Z,2.97
2023-03-29T14:29:02.920Z,3.42
2023-03-29T14:31:35.583Z,2.25
2023-03-29T14:34:06.276Z,3.25
2023-03-29T14:36:34.281Z,2.40
2023-03-29T14:39:17.932Z,2.10
2023-03-29T14:41:51.594Z,2.78
2023-03-29T14:44:21.954Z,2.93
2023-03-29T14:46:49.018Z,2.00
2023-03-29T14:49:20.858Z,2.65
2023-03-29T14:51:49.338Z,3.17
2023-03-29T14:54:27.047Z,3.40
2023-03-29T14:56:55.621Z,2.22
2023-03-29T14:59:27.530Z,2.58
2023-03-29T15:01:54.896Z,2.72
2023-03-29T15:04:21.961Z,1.70
2023-03-29T15:06:53.002Z,2.35
2023-03-29T15:09:32.669Z,3.25
2023-03-29T15:12:01.805Z,2.42
2023-03-29T15:14:35.557Z,2.50
2023-03-29T15:17:17.038Z,2.87
2023-03-29T15:19:44.260Z,2.50
2023-03-29T15:22:11.990Z,2.10
2023-03-29T15:24:47.539Z,2.08
2023-03-29T15:27:17.464Z,2.33
2023-03-29T15:29:46.952Z,2.50
2023-03-29T15:32:24.952Z,1.75
2023-03-29T15:34:59.819Z,2.53
2023-03-29T15:37:27.483Z,2.17
2023-03-29T15:39:54.441Z,2.22
2023-03-29T15:42:21.740Z,2.17
2023-03-29T15:44:48.748Z,1.90
2023-03-29T15:47:15.668Z,2.60
2023-03-29T15:49:42.562Z,2.30
2023-03-29T15:52:09.392Z,2.10
2023-03-29T15:54:37.336Z,2.17
2023-03-29T15:57:07.609Z,2.20
2023-03-29T15:59:36.486Z,2.40
2023-03-29T16:02:04.601Z,2.00
2023-03-29T16:04:31.533Z,2.65
2023-03-29T16:06:58.610Z,2.17
2023-03-29T16:09:25.908Z,2.42
2023-03-29T16:11:52.928Z,2.50
2023-03-29T16:14:24.302Z,3.00
2023-03-29T16:16:52.583Z,1.95
2023-03-29T16:19:19.703Z,2.50
2023-03-29T16:21:46.705Z,2.30
2023-03-29T16:24:24.196Z,2.72
2023-03-29T16:26:54.770Z,2.45
2023-03-29T16:29:23.201Z,3.00
2023-03-29T16:31:50.724Z,3.05
2023-03-29T16:34:18.912Z,2.22
2023-03-29T16:36:47.649Z,2.60
2023-03-29T16:39:15.247Z,2.38
2023-03-29T16:41:42.845Z,3.05
2023-03-29T16:44:15.980Z,2.17
2023-03-29T16:46:42.929Z,2.50
2023-03-29T16:49:14.094Z,2.28
2023-03-29T16:51:41.114Z,2.00
2023-03-29T16:54:09.333Z,2.90
2023-03-29T16:56:36.899Z,2.35
2023-03-29T16:59:04.138Z,2.50
2023-03-29T17:01:31.584Z,2.55
2023-03-29T17:03:58.549Z,2.17
2023-03-29T17:06:26.592Z,2.30
2023-03-29T17:08:53.888Z,2.35
2023-03-29T17:11:23.714Z,3.45
2023-03-29T17:13:50.809Z,2.55
2023-03-29T17:16:18.225Z,2.53
2023-03-29T17:18:45.194Z,2.75
2023-03-29T17:21:12.171Z,2.60
2023-03-29T17:23:39.035Z,3.15
2023-03-29T17:26:07.170Z,2.40
2023-03-29T17:28:34.670Z,2.55
2023-03-29T17:31:07.124Z,3.25
2023-03-29T17:33:34.626Z,3.10
2023-03-29T17:36:01.833Z,2.83
2023-03-29T17:38:30.754Z,2.20
2023-03-29T17:40:57.766Z,2.72
2023-03-29T17:43:24.704Z,3.28
2023-03-29T17:45:52.924Z,3.08
2023-03-29T17:48:20.452Z,3.20
2023-03-29T17:50:47.467Z,2.80
2023-03-29T17:53:14.434Z,2.97
2023-03-29T17:55:41.464Z,3.17
2023-03-29T17:58:08.618Z,3.05
2023-03-29T18:00:35.843Z,3.28
2023-03-29T18:03:03.275Z,3.10
2023-03-29T18:05:30.153Z,3.55
2023-03-29T18:07:57.411Z,3.00
2023-03-29T18:10:24.416Z,3.15
2023-03-29T18:12:51.872Z,2.65
2023-03-29T18:15:18.826Z,3.42
2023-03-29T18:17:46.190Z,3.50
2023-03-29T18:20:13.919Z,4.57
2023-03-29T18:22:41.912Z,3.03
2023-03-29T18:25:09.761Z,3.67
2023-03-29T18:27:38.178Z,4.05
2023-03-29T18:30:06.605Z,2.97
2023-03-29T18:32:33.669Z,3.42
2023-03-29T18:35:02.432Z,2.70
2023-03-29T18:37:29.469Z,2.92
2023-03-29T18:39:57.055Z,2.53
2023-03-29T18:42:24.014Z,2.60
2023-03-29T18:44:53.333Z,2.45
2023-03-29T18:47:20.288Z,3.03
2023-03-29T18:49:47.323Z,2.28
2023-03-29T18:52:14.361Z,2.88
2023-03-29T18:54:41.646Z,3.08
2023-03-29T18:57:08.746Z,3.22
2023-03-29T18:59:38.642Z,3.45
2023-03-29T19:02:06.161Z,3.03
2023-03-29T19:04:33.119Z,2.80
2023-03-29T19:07:01.532Z,3.33
2023-03-29T19:09:28.698Z,3.47
2023-03-29T19:11:55.773Z,2.80
2023-03-29T19:14:25.271Z,2.65
2023-03-29T19:16:52.924Z,2.72
2023-03-29T19:19:22.597Z,3.20
2023-03-29T19:21:50.238Z,3.28
2023-03-29T19:24:17.921Z,3.08
2023-03-29T19:26:47.958Z,3.00
2023-03-29T19:29:15.525Z,2.65
2023-03-29T19:31:42.813Z,3.13
2023-03-29T19:34:11.165Z,3.40
2023-03-29T19:36:38.617Z,3.13
2023-03-29T19:39:05.955Z,3.47
2023-03-29T19:41:32.898Z,3.65
2023-03-29T19:43:59.828Z,3.17
2023-03-29T19:46:28.436Z,3.08
2023-03-29T19:48:56.281Z,3.03
2023-03-29T19:51:23.946Z,3.22
2023-03-29T19:53:51.141Z,3.90
2023-03-29T19:56:18.224Z,3.20
2023-03-29T19:58:46.926Z,3.60
2023-03-29T20:01:15.667Z,3.63
2023-03-29T20:03:43.826Z,4.00
2023-03-29T20:06:11.055Z,3.28
2023-03-29T20:08:39.011Z,3.67
2023-03-29T20:11:10.597Z,4.63
2023-03-29T20:13:39.719Z,3.53
2023-03-29T20:16:09.022Z,3.38
2023-03-29T20:18:38.393Z,3.83
2023-03-29T20:21:06.980Z,3.75
2023-03-29T20:23:34.832Z,3.47
2023-03-29T20:26:01.879Z,5.00
2023-03-29T20:28:29.349Z,3.80
2023-03-29T20:30:56.250Z,3.50
2023-03-29T20:33:23.234Z,4.00
2023-03-29T20:35:50.247Z,4.00
2023-03-29T20:38:17.139Z,3.95
2023-03-29T20:40:47.294Z,4.30
2023-03-29T20:43:18.805Z,4.63
2023-03-29T20:45:53.589Z,3.78
2023-03-29T20:48:23.574Z,3.53
2023-03-29T20:50:51.034Z,3.65
2023-03-29T20:53:18.531Z,4.00
2023-03-29T20:55:45.616Z,3.42
2023-03-29T20:58:12.572Z,3.63
2023-03-29T21:00:40.474Z,3.35
2023-03-29T21:03:08.637Z,3.20
2023-03-29T21:05:35.897Z,4.10
2023-03-29T21:08:04.470Z,3.60
2023-03-29T21:10:31.504Z,5.03
2023-03-29T21:13:00.538Z,3.85
2023-03-29T21:15:31.083Z,3.38
2023-03-29T21:17:58.784Z,3.90
2023-03-29T21:20:25.858Z,3.78
2023-03-29T21:22:52.757Z,4.28
2023-03-29T21:25:19.800Z,3.75
2023-03-29T21:27:46.748Z,4.03
2023-03-29T21:30:13.934Z,3.75
2023-03-29T21:32:41.371Z,3.30
2023-03-29T21:35:09.423Z,3.22
2023-03-29T21:37:36.459Z,3.22
2023-03-29T21:40:08.703Z,3.22
2023-03-29T21:42:35.892Z,2.95
2023-03-29T21:45:03.350Z,3.97
2023-03-29T21:47:30.677Z,4.10
2023-03-29T21:49:57.686Z,3.42
2023-03-29T21:52:24.572Z,4.05
2023-03-29T21:54:51.584Z,3.80
2023-03-29T21:57:22.351Z,2.75
2023-03-29T21:59:49.390Z,3.13
2023-03-29T22:02:17.108Z,3.45
2023-03-29T22:04:44.167Z,3.58
2023-03-29T22:07:11.250Z,3.30
2023-03-29T22:09:41.351Z,2.72
2023-03-29T22:12:09.948Z,2.85
2023-03-29T22:14:36.808Z,5.03
2023-03-29T22:17:07.839Z,3.17
2023-03-29T22:19:39.352Z,4.18
2023-03-29T22:22:13.766Z,3.10
2023-03-29T22:24:42.364Z,3.17
2023-03-29T22:27:10.629Z,4.28
2023-03-29T22:29:37.859Z,2.85
2023-03-29T22:32:05.998Z,3.03
2023-03-29T22:34:33.291Z,3.28
2023-03-29T22:37:00.278Z,3.60
2023-03-29T22:39:27.170Z,3.70
2023-03-29T22:41:54.186Z,3.72
2023-03-29T22:44:21.214Z,3.47
2023-03-29T22:46:48.093Z,2.95
2023-03-29T22:49:15.034Z,3.40
2023-03-29T22:51:42.113Z,3.33
2023-03-29T22:54:09.083Z,3.58
2023-03-29T22:56:36.421Z,4.13
2023-03-29T22:59:03.413Z,3.22
2023-03-29T23:01:30.422Z,2.95
2023-03-29T23:03:57.501Z,2.50
2023-03-29T23:06:24.491Z,2.90
2023-03-29T23:08:51.412Z,2.13
2023-03-29T23:11:18.341Z,2.08
2023-03-29T23:13:48.925Z,2.90
2023-03-29T23:16:16.548Z,2.20
2023-03-29T23:18:43.427Z,2.35
2023-03-29T23:21:10.922Z,2.83
2023-03-29T23:23:38.855Z,2.65
2023-03-29T23:26:06.625Z,3.17
2023-03-29T23:28:34.774Z,2.15
2023-03-29T23:31:02.899Z,3.90
2023-03-29T23:33:33.721Z,2.60
2023-03-29T23:36:03.907Z,2.45
2023-03-29T23:38:32.127Z,2.30
2023-03-29T23:41:02.204Z,2.13
2023-03-29T23:43:32.805Z,3.10
2023-03-29T23:46:02.218Z,2.33
2023-03-29T23:48:29.714Z,2.67
2023-03-29T23:50:59.401Z,2.70
2023-03-29T23:53:28.834Z,2.20
2023-03-29T23:56:01.504Z,2.33
2023-03-29T23:58:29.754Z,2.22
